Time;durP1;ratioP1;P1;durP2;ratioP2;P2;SDS_P1;SDS_P2;PMS_P1;PMS_P2;Temp;Humidity;BMP_temperature;BMP_pressure;BME280_temperature;BME280_humidity;BME280_pressure;Samples;Min_cycle;Max_cycle;Signal;HPM_P1;HPM_P2
2023/08/06 00:00:15;;;;;;;;;;;;;;;;;;2071991;28;19917;-85
2023/08/06 00:01:36;;;;;;;;;;;;;;;;;;2076349;28;19913;-86
2023/08/06 00:02:57;;;;;;;;;;;;;;;;;;2074175;28;19917;-87
2023/08/06 00:04:17;;;;;;;;;;;;;;;;;;2081026;28;20276;-86
2023/08/06 00:05:38;;;;;;;;;;;;;;;;;;2081300;28;19913;-84
2023/08/06 00:06:59;;;;;;;;;;;;;;;;;;2088402;28;19927;-86
2023/08/06 00:08:19;;;;;;;;;;;;;;;;;;2088946;28;19913;-87
2023/08/06 00:09:40;;;;;;;;;;;;;;;;;;2087641;28;19909;-86
2023/08/06 00:11:01;;;;;;;;;;;;;;;;;;2084553;28;19908;-80
2023/08/06 00:12:22;;;;;;;;;;;;;;;;;;2078805;28;19920;-87
2023/08/06 00:13:42;;;;;;;;;;;;;;;;;;2080832;28;20008;-85
2023/08/06 00:15:03;;;;;;;;;;;;;;;;;;2079688;28;19979;-86
2023/08/06 00:16:24;;;;;;;;;;;;;;;;;;2081076;28;19932;-86
2023/08/06 00:17:44;;;;;;;;;;;;;;;;;;2079364;28;20380;-86
2023/08/06 00:19:06;;;;;;;;;;;;;;;;;;2091017;28;19897;-85
2023/08/06 00:20:26;;;;;;;;;;;;;;;;;;2081883;28;19909;-86
2023/08/06 00:21:47;;;;;;;;;;;;;;;;;;2083165;28;19916;-84
2023/08/06 00:23:08;;;;;;;;;;;;;;;;;;2078974;28;19921;-84
2023/08/06 00:24:29;;;;;;;;;;;;;;;;;;2075691;28;19913;-86
2023/08/06 00:25:49;;;;;;;;;;;;;;;;;;2080590;28;20238;-86
2023/08/06 00:27:10;;;;;;;;;;;;;;;;;;2074842;28;19920;-86
2023/08/06 00:28:31;;;;;;;;;;;;;;;;;;2071235;28;20423;-86
2023/08/06 00:29:52;;;;;;;;;;;;;;;;;;2071849;28;19909;-86
2023/08/06 00:31:13;;;;;;;;;;;;;;;;;;2080706;28;19909;-86
2023/08/06 00:32:33;;;;;;;;;;;;;;;;;;2083767;28;20253;-84
2023/08/06 00:33:54;;;;;;;;;;;;;;;;;;2077932;28;19910;-87
2023/08/06 00:35:15;;;;;;;;;;;;;;;;;;2082927;28;19985;-85
2023/08/06 00:36:36;;;;;;;;;;;;;;;;;;2078802;28;19920;-84
2023/08/06 00:37:56;;;;;;;;;;;;;;;;;;2083013;28;19988;-84
2023/08/06 00:39:17;;;;;;;;;;;;;;;;;;2099496;28;19908;-85
2023/08/06 00:40:38;;;;;;;;;;;;;;;;;;2098387;28;20375;-85
2023/08/06 00:41:58;;;;;;;;;;;;;;;;;;2082791;28;20478;-83
2023/08/06 00:43:19;;;;;;;;;;;;;;;;;;2087469;28;19917;-82
2023/08/06 00:44:40;;;;;;;;;;;;;;;;;;2083336;28;19960;-85
2023/08/06 00:46:00;;;;;;;;;;;;;;;;;;2078822;28;19910;-86
2023/08/06 00:47:21;;;;;;;;;;;;;;;;;;2080346;28;20375;-86
2023/08/06 00:48:42;;;;;;;;;;;;;;;;;;2080755;28;19920;-85
2023/08/06 00:50:03;;;;;;;;;;;;;;;;;;2084938;28;19909;-86
2023/08/06 00:51:23;;;;;;;;;;;;;;;;;;2086544;28;20042;-86
2023/08/06 00:52:44;;;;;;;;;;;;;;;;;;2088468;28;19913;-86
2023/08/06 00:54:05;;;;;;;;;;;;;;;;;;2078503;28;20356;-85
2023/08/06 00:55:25;;;;;;;;;;;;;;;;;;2080496;28;19909;-86
2023/08/06 00:56:46;;;;;;;;;;;;;;;;;;2079561;28;20296;-86
2023/08/06 00:58:07;;;;;;;;;;;;;;;;;;2088839;28;19909;-86
2023/08/06 00:59:27;;;;;;;;;;;;;;;;;;2081631;28;20289;-86
2023/08/06 01:00:48;;;;;;;;;;;;;;;;;;2081495;28;19913;-86
2023/08/06 01:02:09;;;;;;;;;;;;;;;;;;2079618;28;19917;-87
2023/08/06 01:03:30;;;;;;;;;;;;;;;;;;2080334;28;19924;-87
2023/08/06 01:04:50;;;;;;;;;;;;;;;;;;2079925;28;19909;-86
2023/08/06 01:06:11;;;;;;;;;;;;;;;;;;2080315;28;19920;-85
2023/08/06 01:07:32;;;;;;;;;;;;;;;;;;2079771;28;19917;-86
2023/08/06 01:08:52;;;;;;;;;;;;;;;;;;2089836;28;19916;-87
2023/08/06 01:10:13;;;;;;;;;;;;;;;;;;2091795;28;20372;-84
2023/08/06 01:11:34;;;;;;;;;;;;;;;;;;2090533;28;20292;-86
2023/08/06 01:12:54;;;;;;;;;;;;;;;;;;2081838;28;20381;-86
2023/08/06 01:14:15;;;;;;;;;;;;;;;;;;2083334;28;19916;-86
2023/08/06 01:15:36;;;;;;;;;;;;;;;;;;2082762;28;20307;-86
2023/08/06 01:16:56;;;;;;;;;;;;;;;;;;2083113;28;20434;-87
2023/08/06 01:18:17;;;;;;;;;;;;;;;;;;2082471;28;19917;-86
2023/08/06 01:19:38;;;;;;;;;;;;;;;;;;2077231;28;19916;-87
2023/08/06 01:20:59;;;;;;;;;;;;;;;;;;2089581;28;19913;-84
2023/08/06 01:22:19;;;;;;;;;;;;;;;;;;2079407;28;19995;-87
2023/08/06 01:23:40;;;;;;;;;;;;;;;;;;2087026;28;19917;-83
2023/08/06 01:25:01;;;;;;;;;;;;;;;;;;2082209;28;19909;-86
2023/08/06 01:26:21;;;;;;;;;;;;;;;;;;2080494;28;19909;-85
2023/08/06 01:27:42;;;;;;;;;;;;;;;;;;2088127;28;19917;-86
2023/08/06 01:29:03;;;;;;;;;;;;;;;;;;2082424;28;19932;-86
2023/08/06 01:30:24;;;;;;;;;;;;;;;;;;2079576;28;19909;-86
2023/08/06 01:31:44;;;;;;;;;;;;;;;;;;2084144;28;19928;-85
2023/08/06 01:33:08;;;;;;;;;;;;;;;;;;2080663;28;19920;-87
2023/08/06 01:34:28;;;;;;;;;;;;;;;;;;2083257;28;19913;-86
2023/08/06 01:35:49;;;;;;;;;;;;;;;;;;2082832;28;19920;-86
2023/08/06 01:37:10;;;;;;;;;;;;;;;;;;2082088;28;19909;-85
2023/08/06 01:38:31;;;;;;;;;;;;;;;;;;2084428;28;19916;-86
2023/08/06 01:39:51;;;;;;;;;;;;;;;;;;2089618;28;19909;-86
2023/08/06 01:41:12;;;;;;;;;;;;;;;;;;2090447;28;20368;-87
2023/08/06 01:42:33;;;;;;;;;;;;;;;;;;2081550;28;20040;-86
2023/08/06 01:43:53;;;;;;;;;;;;;;;;;;2078050;28;19979;-86
2023/08/06 01:45:14;;;;;;;;;;;;;;;;;;2079044;28;19916;-85
2023/08/06 01:46:35;;;;;;;;;;;;;;;;;;2087808;28;20368;-87
2023/08/06 01:47:56;;;;;;;;;;;;;;;;;;2086006;28;19913;-87
2023/08/06 01:49:16;;;;;;;;;;;;;;;;;;2080680;28;20300;-87
2023/08/06 01:50:37;;;;;;;;;;;;;;;;;;2086987;28;19916;-87
2023/08/06 01:51:58;;;;;;;;;;;;;;;;;;2096780;28;19913;-87
2023/08/06 01:53:18;;;;;;;;;;;;;;;;;;2099400;28;20279;-83
2023/08/06 01:54:39;;;;;;;;;;;;;;;;;;2075542;28;19918;-86
2023/08/06 01:56:00;;;;;;;;;;;;;;;;;;2071530;28;19914;-85
2023/08/06 01:57:20;;;;;;;;;;;;;;;;;;2087376;28;19913;-87
2023/08/06 01:58:41;;;;;;;;;;;;;;;;;;2078578;28;19913;-84
2023/08/06 02:00:03;;;;;;;;;;;;;;;;;;2088122;28;20373;-86
2023/08/06 02:01:24;;;;;;;;;;;;;;;;;;2081754;28;20395;-87
2023/08/06 02:02:44;;;;;;;;;;;;;;;;;;2079441;28;19909;-86
2023/08/06 02:04:05;;;;;;;;;;;;;;;;;;2086928;28;19923;-86
2023/08/06 02:05:26;;;;;;;;;;;;;;;;;;2083739;28;19909;-85
2023/08/06 02:06:46;;;;;;;;;;;;;;;;;;2079492;28;19909;-86
2023/08/06 02:08:07;;;;;;;;;;;;;;;;;;2080941;28;19909;-85
2023/08/06 02:09:28;;;;;;;;;;;;;;;;;;2078927;28;19909;-87
2023/08/06 02:10:49;;;;;;;;;;;;;;;;;;2080322;28;19976;-86
2023/08/06 02:12:09;;;;;;;;;;;;;;;;;;2079120;28;19924;-87
2023/08/06 02:13:30;;;;;;;;;;;;;;;;;;2080512;28;19951;-85
2023/08/06 02:14:51;;;;;;;;;;;;;;;;;;2078513;28;19940;-86
2023/08/06 02:16:11;;;;;;;;;;;;;;;;;;2090690;28;19916;-86
2023/08/06 02:17:32;;;;;;;;;;;;;;;;;;2090627;28;20285;-87
2023/08/06 02:18:53;;;;;;;;;;;;;;;;;;2092251;28;19908;-86
2023/08/06 02:20:13;;;;;;;;;;;;;;;;;;2089587;28;19909;-85
2023/08/06 02:21:34;;;;;;;;;;;;;;;;;;2083094;28;19910;-87
2023/08/06 02:22:55;;;;;;;;;;;;;;;;;;2088345;28;19909;-87
2023/08/06 02:24:15;;;;;;;;;;;;;;;;;;2090098;28;19920;-86
2023/08/06 02:25:36;;;;;;;;;;;;;;;;;;2081522;28;19943;-86
2023/08/06 02:26:57;;;;;;;;;;;;;;;;;;2088300;28;19916;-87
2023/08/06 02:28:17;;;;;;;;;;;;;;;;;;2090397;28;19909;-85
2023/08/06 02:29:38;;;;;;;;;;;;;;;;;;2081850;28;20388;-84
2023/08/06 02:30:59;;;;;;;;;;;;;;;;;;2080887;28;19913;-86
2023/08/06 02:32:20;;;;;;;;;;;;;;;;;;2071841;28;19969;-87
2023/08/06 02:33:40;;;;;;;;;;;;;;;;;;2071767;28;19917;-87
2023/08/06 02:35:01;;;;;;;;;;;;;;;;;;2071089;28;19910;-83
2023/08/06 02:36:22;;;;;;;;;;;;;;;;;;2080537;28;20360;-87
2023/08/06 02:37:42;;;;;;;;;;;;;;;;;;2087202;28;19913;-86
2023/08/06 02:39:03;;;;;;;;;;;;;;;;;;2082538;28;19910;-86
2023/08/06 02:40:24;;;;;;;;;;;;;;;;;;2086965;28;19916;-86
2023/08/06 02:41:45;;;;;;;;;;;;;;;;;;2079370;28;19924;-85
2023/08/06 02:43:05;;;;;;;;;;;;;;;;;;2087269;28;20378;-84
2023/08/06 02:44:26;;;;;;;;;;;;;;;;;;2082655;28;19951;-86
2023/08/06 02:45:47;;;;;;;;;;;;;;;;;;2079511;28;20393;-86
2023/08/06 02:47:07;;;;;;;;;;;;;;;;;;2079879;28;19910;-85
2023/08/06 02:48:28;;;;;;;;;;;;;;;;;;2079458;28;19909;-85
2023/08/06 02:49:49;;;;;;;;;;;;;;;;;;2072518;28;20285;-85
2023/08/06 02:51:09;;;;;;;;;;;;;;;;;;2072611;28;19921;-85
2023/08/06 02:52:30;;;;;;;;;;;;;;;;;;2079472;28;20294;-84
2023/08/06 02:53:51;;;;;;;;;;;;;;;;;;2083553;28;19928;-86
2023/08/06 02:55:12;;;;;;;;;;;;;;;;;;2082830;28;19909;-86
2023/08/06 02:56:32;;;;;;;;;;;;;;;;;;2084339;28;19989;-87
2023/08/06 02:57:53;;;;;;;;;;;;;;;;;;2081830;28;19909;-85
2023/08/06 02:59:14;;;;;;;;;;;;;;;;;;2090749;28;20301;-86
2023/08/06 03:00:34;;;;;;;;;;;;;;;;;;2082907;28;19910;-87
2023/08/06 03:01:55;;;;;;;;;;;;;;;;;;2083125;28;19913;-87
2023/08/06 03:03:16;;;;;;;;;;;;;;;;;;2079356;28;19920;-84
2023/08/06 03:04:36;;;;;;;;;;;;;;;;;;2090089;28;19909;-86
2023/08/06 03:05:57;;;;;;;;;;;;;;;;;;2083044;28;20302;-86
2023/08/06 03:07:18;;;;;;;;;;;;;;;;;;2081969;28;19945;-86
2023/08/06 03:08:39;;;;;;;;;;;;;;;;;;2080329;28;19942;-83
2023/08/06 03:10:01;;;;;;;;;;;;;;;;;;2080600;28;19963;-87
2023/08/06 03:11:22;;;;;;;;;;;;;;;;;;2077932;28;20266;-87
2023/08/06 03:12:43;;;;;;;;;;;;;;;;;;2089559;28;19912;-87
2023/08/06 03:14:03;;;;;;;;;;;;;;;;;;2080808;28;19921;-85
2023/08/06 03:15:24;;;;;;;;;;;;;;;;;;2081195;28;19909;-87
2023/08/06 03:16:45;;;;;;;;;;;;;;;;;;2080322;28;19932;-86
2023/08/06 03:18:05;;;;;;;;;;;;;;;;;;2080581;28;20284;-86
2023/08/06 03:19:26;;;;;;;;;;;;;;;;;;2079916;28;20376;-85
2023/08/06 03:20:47;;;;;;;;;;;;;;;;;;2081222;28;19917;-83
2023/08/06 03:22:08;;;;;;;;;;;;;;;;;;2080781;28;20443;-86
2023/08/06 03:23:28;;;;;;;;;;;;;;;;;;2088052;28;19997;-86
2023/08/06 03:24:49;;;;;;;;;;;;;;;;;;2082684;28;19921;-86
2023/08/06 03:26:10;;;;;;;;;;;;;;;;;;2088407;28;20388;-87
2023/08/06 03:27:30;;;;;;;;;;;;;;;;;;2083170;28;19920;-86
2023/08/06 03:28:51;;;;;;;;;;;;;;;;;;2088598;28;19920;-86
2023/08/06 03:30:12;;;;;;;;;;;;;;;;;;2082019;28;19909;-83
2023/08/06 03:31:32;;;;;;;;;;;;;;;;;;2082427;28;20276;-85
2023/08/06 03:32:53;;;;;;;;;;;;;;;;;;2090304;28;19909;-85
2023/08/06 03:34:14;;;;;;;;;;;;;;;;;;2087601;28;20350;-87
2023/08/06 03:35:34;;;;;;;;;;;;;;;;;;2090903;28;19916;-87
2023/08/06 03:36:55;;;;;;;;;;;;;;;;;;2092731;28;19916;-87
2023/08/06 03:38:16;;;;;;;;;;;;;;;;;;2090535;28;19913;-85
2023/08/06 03:39:36;;;;;;;;;;;;;;;;;;2080997;28;19910;-88
2023/08/06 03:40:57;;;;;;;;;;;;;;;;;;2079804;28;20282;-86
2023/08/06 03:42:18;;;;;;;;;;;;;;;;;;2080260;28;20415;-83
2023/08/06 03:43:39;;;;;;;;;;;;;;;;;;2088184;28;19916;-84
2023/08/06 03:44:59;;;;;;;;;;;;;;;;;;2092537;28;19931;-86
2023/08/06 03:46:20;;;;;;;;;;;;;;;;;;2091778;28;19916;-84
2023/08/06 03:47:41;;;;;;;;;;;;;;;;;;2084527;28;19913;-86
2023/08/06 03:49:01;;;;;;;;;;;;;;;;;;2084805;28;19910;-83
2023/08/06 03:50:22;;;;;;;;;;;;;;;;;;2091130;28;20356;-86
2023/08/06 03:51:43;;;;;;;;;;;;;;;;;;2091807;28;20364;-86
2023/08/06 03:53:04;;;;;;;;;;;;;;;;;;2082493;28;19909;-86
2023/08/06 03:54:24;;;;;;;;;;;;;;;;;;2089224;28;20347;-86
2023/08/06 03:55:45;;;;;;;;;;;;;;;;;;2082207;28;19920;-86
2023/08/06 03:57:06;;;;;;;;;;;;;;;;;;2090694;28;19909;-85
2023/08/06 03:58:26;;;;;;;;;;;;;;;;;;2089687;28;19916;-86
2023/08/06 03:59:47;;;;;;;;;;;;;;;;;;2093348;28;19919;-85
2023/08/06 04:01:08;;;;;;;;;;;;;;;;;;2089850;28;19909;-87
2023/08/06 04:02:29;;;;;;;;;;;;;;;;;;2084685;28;20020;-86
2023/08/06 04:03:49;;;;;;;;;;;;;;;;;;2086705;28;19913;-86
2023/08/06 04:05:10;;;;;;;;;;;;;;;;;;2085590;28;20005;-86
2023/08/06 04:06:31;;;;;;;;;;;;;;;;;;2087517;28;20287;-86
2023/08/06 04:07:51;;;;;;;;;;;;;;;;;;2085088;28;19921;-86
2023/08/06 04:09:13;;;;;;;;;;;;;;;;;;2087697;28;19913;-86
2023/08/06 04:10:33;;;;;;;;;;;;;;;;;;2093748;28;19916;-86
2023/08/06 04:11:54;;;;;;;;;;;;;;;;;;2091450;28;20356;-86
2023/08/06 04:13:15;;;;;;;;;;;;;;;;;;2091392;28;19909;-87
2023/08/06 04:14:36;;;;;;;;;;;;;;;;;;2082469;28;19996;-86
2023/08/06 04:15:57;;;;;;;;;;;;;;;;;;2082690;28;19920;-86
2023/08/06 04:17:20;;;;;;;;;;;;;;;;;;2082940;28;19924;-85
2023/08/06 04:18:40;;;;;;;;;;;;;;;;;;2083205;28;19913;-86
2023/08/06 04:20:02;;;;;;;;;;;;;;;;;;2089639;28;19936;-86
2023/08/06 04:21:23;;;;;;;;;;;;;;;;;;2083948;28;19909;-86
2023/08/06 04:22:43;;;;;;;;;;;;;;;;;;2081166;28;19910;-87
2023/08/06 04:24:04;;;;;;;;;;;;;;;;;;2079507;28;19920;-86
2023/08/06 04:25:25;;;;;;;;;;;;;;;;;;2080322;28;19920;-87
2023/08/06 04:26:46;;;;;;;;;;;;;;;;;;2080047;28;19909;-86
2023/08/06 04:28:07;;;;;;;;;;;;;;;;;;2084240;28;20323;-86
2023/08/06 04:29:27;;;;;;;;;;;;;;;;;;2083267;28;19931;-87
2023/08/06 04:30:48;;;;;;;;;;;;;;;;;;2088713;28;19916;-86
2023/08/06 04:32:09;;;;;;;;;;;;;;;;;;2075101;28;19913;-86
2023/08/06 04:33:29;;;;;;;;;;;;;;;;;;2080494;28;19920;-87
2023/08/06 04:34:50;;;;;;;;;;;;;;;;;;2073071;28;19928;-86
2023/08/06 04:36:11;;;;;;;;;;;;;;;;;;2072826;28;20017;-86
2023/08/06 04:37:31;;;;;;;;;;;;;;;;;;2071909;28;19931;-86
2023/08/06 04:38:52;;;;;;;;;;;;;;;;;;2082431;28;20383;-86
2023/08/06 04:40:13;;;;;;;;;;;;;;;;;;2088044;28;19913;-86
2023/08/06 04:41:34;;;;;;;;;;;;;;;;;;2092955;28;19909;-86
2023/08/06 04:42:54;;;;;;;;;;;;;;;;;;2082196;28;20369;-84
2023/08/06 04:44:15;;;;;;;;;;;;;;;;;;2079106;28;19948;-86
2023/08/06 04:45:36;;;;;;;;;;;;;;;;;;2079448;28;19917;-86
2023/08/06 04:46:56;;;;;;;;;;;;;;;;;;2079100;28;20229;-86
2023/08/06 04:48:17;;;;;;;;;;;;;;;;;;2087110;28;19924;-84
2023/08/06 04:49:38;;;;;;;;;;;;;;;;;;2082345;28;19985;-86
2023/08/06 04:50:58;;;;;;;;;;;;;;;;;;2075349;28;19918;-85
2023/08/06 04:52:19;;;;;;;;;;;;;;;;;;2079388;28;19920;-86
2023/08/06 04:53:40;;;;;;;;;;;;;;;;;;2084503;28;19921;-85
2023/08/06 04:55:00;;;;;;;;;;;;;;;;;;2082604;28;20353;-87
2023/08/06 04:56:21;;;;;;;;;;;;;;;;;;2083282;28;19909;-86
2023/08/06 04:57:42;;;;;;;;;;;;;;;;;;2081826;28;19918;-85
2023/08/06 04:59:03;;;;;;;;;;;;;;;;;;2080705;28;19909;-85
2023/08/06 05:00:23;;;;;;;;;;;;;;;;;;2079433;28;19989;-85
2023/08/06 05:01:44;;;;;;;;;;;;;;;;;;2087517;28;19908;-86
2023/08/06 05:03:05;;;;;;;;;;;;;;;;;;2082625;28;20305;-86
2023/08/06 05:04:25;;;;;;;;;;;;;;;;;;2071642;28;19920;-86
2023/08/06 05:05:46;;;;;;;;;;;;;;;;;;2080004;28;20289;-86
2023/08/06 05:07:07;;;;;;;;;;;;;;;;;;2083125;28;19929;-86
2023/08/06 05:08:27;;;;;;;;;;;;;;;;;;2074063;28;19924;-85
2023/08/06 05:09:48;;;;;;;;;;;;;;;;;;2072535;28;19910;-86
2023/08/06 05:11:09;;;;;;;;;;;;;;;;;;2071645;28;19913;-85
2023/08/06 05:12:30;;;;;;;;;;;;;;;;;;2072272;28;19914;-85
2023/08/06 05:13:51;;;;;;;;;;;;;;;;;;2079378;28;19913;-86
2023/08/06 05:15:11;;;;;;;;;;;;;;;;;;2081218;28;19980;-84
2023/08/06 05:16:32;;;;;;;;;;;;;;;;;;2088425;28;19920;-86
2023/08/06 05:17:53;;;;;;;;;;;;;;;;;;2082570;28;19944;-86
2023/08/06 05:19:13;;;;;;;;;;;;;;;;;;2088155;28;19917;-86
2023/08/06 05:20:34;;;;;;;;;;;;;;;;;;2082503;28;19910;-84
2023/08/06 05:21:55;;;;;;;;;;;;;;;;;;2081912;28;19981;-87
2023/08/06 05:23:16;;;;;;;;;;;;;;;;;;2088425;28;19909;-86
2023/08/06 05:24:37;;;;;;;;;;;;;;;;;;2085964;28;19987;-86
2023/08/06 05:25:58;;;;;;;;;;;;;;;;;;2091318;28;19909;-86
2023/08/06 05:27:18;;;;;;;;;;;;;;;;;;2091232;28;19931;-84
2023/08/06 05:28:41;;;;;;;;;;;;;;;;;;2091831;28;20022;-86
2023/08/06 05:30:01;;;;;;;;;;;;;;;;;;2090823;28;19920;-85
2023/08/06 05:31:22;;;;;;;;;;;;;;;;;;2089636;28;19916;-86
2023/08/06 05:32:43;;;;;;;;;;;;;;;;;;2083826;28;19913;-84
2023/08/06 05:34:03;;;;;;;;;;;;;;;;;;2079167;28;19916;-86
2023/08/06 05:35:24;;;;;;;;;;;;;;;;;;2078608;28;19917;-85
2023/08/06 05:36:45;;;;;;;;;;;;;;;;;;2088551;28;20229;-86
2023/08/06 05:38:05;;;;;;;;;;;;;;;;;;2090137;28;19916;-85
2023/08/06 05:39:26;;;;;;;;;;;;;;;;;;2082206;28;19976;-86
2023/08/06 05:40:47;;;;;;;;;;;;;;;;;;2073248;28;20277;-83
2023/08/06 05:42:08;;;;;;;;;;;;;;;;;;2079689;28;19916;-86
2023/08/06 05:43:29;;;;;;;;;;;;;;;;;;2078841;28;19913;-85
2023/08/06 05:44:50;;;;;;;;;;;;;;;;;;2077821;28;20401;-84
2023/08/06 05:46:10;;;;;;;;;;;;;;;;;;2087796;28;19916;-86
2023/08/06 05:47:31;;;;;;;;;;;;;;;;;;2082269;28;20384;-86
2023/08/06 05:48:52;;;;;;;;;;;;;;;;;;2090134;28;19909;-85
2023/08/06 05:50:12;;;;;;;;;;;;;;;;;;2092162;28;19909;-83
2023/08/06 05:51:33;;;;;;;;;;;;;;;;;;2090444;28;20386;-85
2023/08/06 05:52:54;;;;;;;;;;;;;;;;;;2087386;28;19916;-85
2023/08/06 05:54:14;;;;;;;;;;;;;;;;;;2087258;28;19955;-80
2023/08/06 05:55:35;;;;;;;;;;;;;;;;;;2087543;28;19959;-85
2023/08/06 05:56:56;;;;;;;;;;;;;;;;;;2087888;28;19909;-85
2023/08/06 05:58:16;;;;;;;;;;;;;;;;;;2087914;28;19913;-84
2023/08/06 05:59:37;;;;;;;;;;;;;;;;;;2090988;28;19916;-85
2023/08/06 06:00:58;;;;;;;;;;;;;;;;;;2081394;28;19910;-85
2023/08/06 06:02:18;;;;;;;;;;;;;;;;;;2082002;28;19917;-84
2023/08/06 06:03:39;;;;;;;;;;;;;;;;;;2082055;28;20245;-86
2023/08/06 06:05:00;;;;;;;;;;;;;;;;;;2081000;28;19921;-85
2023/08/06 06:06:21;;;;;;;;;;;;;;;;;;2089052;28;19932;-85
2023/08/06 06:07:41;;;;;;;;;;;;;;;;;;2081570;28;19917;-84
2023/08/06 06:09:02;;;;;;;;;;;;;;;;;;2082933;28;19909;-85
2023/08/06 06:10:23;;;;;;;;;;;;;;;;;;2088230;28;20356;-85
2023/08/06 06:11:44;;;;;;;;;;;;;;;;;;2092616;28;19916;-85
2023/08/06 06:13:05;;;;;;;;;;;;;;;;;;2081008;28;20280;-85
2023/08/06 06:14:26;;;;;;;;;;;;;;;;;;2082758;28;19936;-85
2023/08/06 06:15:47;;;;;;;;;;;;;;;;;;2082196;28;19917;-85
2023/08/06 06:17:07;;;;;;;;;;;;;;;;;;2082585;28;19909;-85
2023/08/06 06:18:28;;;;;;;;;;;;;;;;;;2081978;28;20312;-85
2023/08/06 06:19:49;;;;;;;;;;;;;;;;;;2083155;28;19977;-84
2023/08/06 06:21:10;;;;;;;;;;;;;;;;;;2081277;28;19936;-84
2023/08/06 06:22:30;;;;;;;;;;;;;;;;;;2081777;28;19924;-85
2023/08/06 06:23:51;;;;;;;;;;;;;;;;;;2078078;28;19917;-86
2023/08/06 06:25:12;;;;;;;;;;;;;;;;;;2078505;28;19917;-84
2023/08/06 06:26:32;;;;;;;;;;;;;;;;;;2077653;28;19909;-84
2023/08/06 06:27:53;;;;;;;;;;;;;;;;;;2079274;28;19932;-84
2023/08/06 06:29:14;;;;;;;;;;;;;;;;;;2078577;28;19909;-85
2023/08/06 06:30:34;;;;;;;;;;;;;;;;;;2078937;28;19917;-85
2023/08/06 06:31:55;;;;;;;;;;;;;;;;;;2088546;28;20292;-83
2023/08/06 06:33:16;;;;;;;;;;;;;;;;;;2091914;28;19932;-85
2023/08/06 06:34:36;;;;;;;;;;;;;;;;;;2082706;28;19917;-83
2023/08/06 06:35:57;;;;;;;;;;;;;;;;;;2073264;28;19913;-85
2023/08/06 06:37:18;;;;;;;;;;;;;;;;;;2072703;28;19917;-81
2023/08/06 06:38:39;;;;;;;;;;;;;;;;;;2078396;28;19920;-85
2023/08/06 06:39:59;;;;;;;;;;;;;;;;;;2080901;28;19913;-85
2023/08/06 06:41:20;;;;;;;;;;;;;;;;;;2079977;28;19920;-83
2023/08/06 06:42:41;;;;;;;;;;;;;;;;;;2088406;28;19917;-86
2023/08/06 06:44:01;;;;;;;;;;;;;;;;;;2083695;28;19909;-85
2023/08/06 06:45:22;;;;;;;;;;;;;;;;;;2088426;28;19917;-84
2023/08/06 06:46:43;;;;;;;;;;;;;;;;;;2083592;28;19925;-85
2023/08/06 06:48:03;;;;;;;;;;;;;;;;;;2080587;28;19913;-82
2023/08/06 06:49:24;;;;;;;;;;;;;;;;;;2083722;28;19909;-85
2023/08/06 06:50:45;;;;;;;;;;;;;;;;;;2089027;28;19920;-85
2023/08/06 06:52:06;;;;;;;;;;;;;;;;;;2097400;28;19927;-86
2023/08/06 06:53:27;;;;;;;;;;;;;;;;;;2100311;28;19908;-81
2023/08/06 06:54:48;;;;;;;;;;;;;;;;;;2099394;28;19923;-84
2023/08/06 06:56:08;;;;;;;;;;;;;;;;;;2088897;28;19909;-85
2023/08/06 06:57:29;;;;;;;;;;;;;;;;;;2088376;28;19909;-85
2023/08/06 06:58:50;;;;;;;;;;;;;;;;;;2089431;28;19917;-83
2023/08/06 07:00:11;;;;;;;;;;;;;;;;;;2092221;28;19919;-86
2023/08/06 07:01:32;;;;;;;;;;;;;;;;;;2092383;28;19916;-85
2023/08/06 07:02:53;;;;;;;;;;;;;;;;;;2092071;28;19908;-85
2023/08/06 07:04:14;;;;;;;;;;;;;;;;;;2091878;28;19908;-83
2023/08/06 07:05:34;;;;;;;;;;;;;;;;;;2090821;28;19920;-86
2023/08/06 07:06:55;;;;;;;;;;;;;;;;;;2089551;28;20292;-85
2023/08/06 07:08:16;;;;;;;;;;;;;;;;;;2092384;28;19928;-86
2023/08/06 07:09:36;;;;;;;;;;;;;;;;;;2090770;28;20292;-85
2023/08/06 07:10:57;;;;;;;;;;;;;;;;;;2091569;28;19909;-86
2023/08/06 07:12:18;;;;;;;;;;;;;;;;;;2092672;28;19936;-83
2023/08/06 07:13:38;;;;;;;;;;;;;;;;;;2091865;28;19909;-85
2023/08/06 07:14:59;;;;;;;;;;;;;;;;;;2083036;28;19920;-86
2023/08/06 07:16:20;;;;;;;;;;;;;;;;;;2089069;28;19939;-85
2023/08/06 07:17:40;;;;;;;;;;;;;;;;;;2076494;28;19913;-86
2023/08/06 07:19:01;;;;;;;;;;;;;;;;;;2072475;28;19909;-82
2023/08/06 07:20:22;;;;;;;;;;;;;;;;;;2074579;28;19910;-84
2023/08/06 07:21:43;;;;;;;;;;;;;;;;;;2088526;28;19931;-86
2023/08/06 07:23:03;;;;;;;;;;;;;;;;;;2092406;28;19915;-85
2023/08/06 07:24:24;;;;;;;;;;;;;;;;;;2091396;28;19909;-85
2023/08/06 07:25:45;;;;;;;;;;;;;;;;;;2082937;28;19917;-85
2023/08/06 07:27:05;;;;;;;;;;;;;;;;;;2079480;28;19913;-86
2023/08/06 07:28:26;;;;;;;;;;;;;;;;;;2086125;28;19913;-85
2023/08/06 07:29:48;;;;;;;;;;;;;;;;;;2090014;28;19909;-86
2023/08/06 07:31:08;;;;;;;;;;;;;;;;;;2083072;28;19916;-84
2023/08/06 07:32:29;;;;;;;;;;;;;;;;;;2079792;28;19909;-85
2023/08/06 07:33:50;;;;;;;;;;;;;;;;;;2081093;28;19917;-86
2023/08/06 07:35:12;;;;;;;;;;;;;;;;;;2079997;28;19936;-86
2023/08/06 07:36:33;;;;;;;;;;;;;;;;;;2079700;28;20410;-86
2023/08/06 07:37:53;;;;;;;;;;;;;;;;;;2089044;28;19909;-85
2023/08/06 07:39:16;;;;;;;;;;;;;;;;;;2088376;28;19916;-85
2023/08/06 07:40:37;;;;;;;;;;;;;;;;;;2079943;28;19995;-86
2023/08/06 07:41:58;;;;;;;;;;;;;;;;;;2088176;28;19920;-84
2023/08/06 07:43:18;;;;;;;;;;;;;;;;;;2092316;28;20232;-84
2023/08/06 07:44:39;;;;;;;;;;;;;;;;;;2082142;28;19909;-84
2023/08/06 07:46:00;;;;;;;;;;;;;;;;;;2080275;28;19921;-85
2023/08/06 07:47:21;;;;;;;;;;;;;;;;;;2078966;28;19909;-85
2023/08/06 07:48:41;;;;;;;;;;;;;;;;;;2082419;28;19913;-85
2023/08/06 07:50:02;;;;;;;;;;;;;;;;;;2083158;28;19909;-85
2023/08/06 07:51:23;;;;;;;;;;;;;;;;;;2088273;28;19928;-84
2023/08/06 07:52:44;;;;;;;;;;;;;;;;;;2082583;28;20380;-84
2023/08/06 07:54:04;;;;;;;;;;;;;;;;;;2088918;28;19908;-84
2023/08/06 07:55:25;;;;;;;;;;;;;;;;;;2082330;28;20276;-83
2023/08/06 07:56:46;;;;;;;;;;;;;;;;;;2080370;28;19913;-83
2023/08/06 07:58:06;;;;;;;;;;;;;;;;;;2088578;28;20206;-84
2023/08/06 07:59:27;;;;;;;;;;;;;;;;;;2083871;28;19932;-84
2023/08/06 08:00:48;;;;;;;;;;;;;;;;;;2081571;28;19916;-83
2023/08/06 08:02:08;;;;;;;;;;;;;;;;;;2089158;28;19916;-85
2023/08/06 08:03:29;;;;;;;;;;;;;;;;;;2091999;28;19915;-85
2023/08/06 08:04:50;;;;;;;;;;;;;;;;;;2091378;28;20269;-87
2023/08/06 08:06:11;;;;;;;;;;;;;;;;;;2082183;28;19928;-82
2023/08/06 08:07:32;;;;;;;;;;;;;;;;;;2080962;28;19916;-86
2023/08/06 08:08:52;;;;;;;;;;;;;;;;;;2079529;28;20375;-83
2023/08/06 08:10:13;;;;;;;;;;;;;;;;;;2088694;28;19916;-83
2023/08/06 08:11:34;;;;;;;;;;;;;;;;;;2083239;28;19917;-83
2023/08/06 08:12:54;;;;;;;;;;;;;;;;;;2082220;28;20276;-83
2023/08/06 08:14:15;;;;;;;;;;;;;;;;;;2087914;28;20045;-84
2023/08/06 08:15:36;;;;;;;;;;;;;;;;;;2082201;28;19920;-82
2023/08/06 08:16:56;;;;;;;;;;;;;;;;;;2080161;28;19909;-82
2023/08/06 08:18:17;;;;;;;;;;;;;;;;;;2080008;28;19913;-83
2023/08/06 08:19:38;;;;;;;;;;;;;;;;;;2089031;28;19909;-83
2023/08/06 08:20:59;;;;;;;;;;;;;;;;;;2081164;28;19909;-84
2023/08/06 08:22:19;;;;;;;;;;;;;;;;;;2081148;28;20423;-82
2023/08/06 08:23:42;;;;;;;;;;;;;;;;;;2079655;28;19920;-83
2023/08/06 08:25:02;;;;;;;;;;;;;;;;;;2079406;28;19909;-81
2023/08/06 08:26:24;;;;;;;;;;;;;;;;;;2088963;28;19935;-84
2023/08/06 08:27:45;;;;;;;;;;;;;;;;;;2082337;28;19909;-81
2023/08/06 08:29:05;;;;;;;;;;;;;;;;;;2095276;28;19912;-82
2023/08/06 08:30:26;;;;;;;;;;;;;;;;;;2091143;28;19916;-82
2023/08/06 08:31:49;;;;;;;;;;;;;;;;;;2088898;28;19910;-81
2023/08/06 08:33:09;;;;;;;;;;;;;;;;;;2099273;28;19912;-82
2023/08/06 08:34:30;;;;;;;;;;;;;;;;;;2098270;28;19913;-80
2023/08/06 08:35:51;;;;;;;;;;;;;;;;;;2088557;28;19921;-80
2023/08/06 08:37:11;;;;;;;;;;;;;;;;;;2087114;28;20384;-79
2023/08/06 08:38:32;;;;;;;;;;;;;;;;;;2085534;28;19913;-81
2023/08/06 08:39:53;;;;;;;;;;;;;;;;;;2071144;28;19913;-80
2023/08/06 08:41:14;;;;;;;;;;;;;;;;;;2070749;28;19909;-80
2023/08/06 08:42:34;;;;;;;;;;;;;;;;;;2071735;28;20300;-80
2023/08/06 08:43:55;;;;;;;;;;;;;;;;;;2081031;28;19969;-81
2023/08/06 08:45:16;;;;;;;;;;;;;;;;;;2082000;28;20372;-80
2023/08/06 08:46:36;;;;;;;;;;;;;;;;;;2073188;28;19920;-80
2023/08/06 08:47:57;;;;;;;;;;;;;;;;;;2075396;28;19940;-80
2023/08/06 08:49:18;;;;;;;;;;;;;;;;;;2073944;28;19913;-79
2023/08/06 08:50:39;;;;;;;;;;;;;;;;;;2071152;28;19909;-78
2023/08/06 08:51:59;;;;;;;;;;;;;;;;;;2078560;28;19913;-79
2023/08/06 08:53:20;;;;;;;;;;;;;;;;;;2082147;28;20348;-79
2023/08/06 08:54:41;;;;;;;;;;;;;;;;;;2073305;28;19917;-79
2023/08/06 08:56:01;;;;;;;;;;;;;;;;;;2078793;28;19917;-80
2023/08/06 08:57:22;;;;;;;;;;;;;;;;;;2089759;28;19909;-80
2023/08/06 08:58:43;;;;;;;;;;;;;;;;;;2089972;28;20399;-79
2023/08/06 09:00:04;;;;;;;;;;;;;;;;;;2086862;28;19908;-80
2023/08/06 09:01:25;;;;;;;;;;;;;;;;;;2089641;28;19909;-80
2023/08/06 09:02:46;;;;;;;;;;;;;;;;;;2089051;28;19916;-80
2023/08/06 09:04:08;;;;;;;;;;;;;;;;;;2090192;28;19988;-80
2023/08/06 09:05:28;;;;;;;;;;;;;;;;;;2090096;28;19913;-82
2023/08/06 09:06:49;;;;;;;;;;;;;;;;;;2089701;28;19931;-80
2023/08/06 09:08:10;;;;;;;;;;;;;;;;;;2086138;28;19913;-80
2023/08/06 09:09:31;;;;;;;;;;;;;;;;;;2084516;28;19917;-80
2023/08/06 09:10:52;;;;;;;;;;;;;;;;;;2088840;28;19920;-80